createdAt,value
2019-02-08T00:01:56.856Z,64.82
2019-02-08T00:04:25.458Z,65.67
2019-02-08T00:06:54.085Z,66.78
2019-02-08T00:09:22.724Z,67.36
2019-02-08T00:11:51.796Z,67.52
2019-02-08T00:14:20.400Z,66.39
2019-02-08T00:16:48.997Z,67.05
2019-02-08T00:19:17.561Z,66.85
2019-02-08T00:21:46.122Z,68.86
2019-02-08T00:24:15.167Z,67.42
2019-02-08T00:26:44.058Z,67.31
2019-02-08T00:29:12.890Z,67.88
2019-02-08T00:31:41.679Z,69.50
2019-02-08T00:34:10.319Z,68.40
2019-02-08T00:36:39.148Z,68.20
2019-02-08T00:39:10.755Z,67.97
2019-02-08T00:41:39.392Z,68.52
2019-02-08T00:44:08.237Z,69.44
2019-02-08T00:46:36.798Z,67.03
2019-02-08T00:49:05.447Z,67.30
2019-02-08T00:51:34.095Z,67.88
2019-02-08T00:54:02.645Z,68.78
2019-02-08T00:56:31.218Z,68.27
2019-02-08T00:58:59.787Z,67.96
2019-02-08T01:01:28.440Z,66.13
2019-02-08T01:03:57.022Z,68.61
2019-02-08T01:06:25.582Z,66.31
2019-02-08T01:08:54.206Z,68.72
2019-02-08T01:11:22.781Z,68.37
2019-02-08T01:13:51.342Z,68.91
2019-02-08T01:16:19.933Z,66.50
2019-02-08T01:18:48.671Z,68.81
2019-02-08T01:21:17.251Z,69.52
2019-02-08T01:23:45.877Z,68.67
2019-02-08T01:26:14.440Z,67.79
2019-02-08T01:28:43.008Z,68.26
2019-02-08T01:31:11.574Z,69.64
2019-02-08T01:33:40.378Z,69.07
2019-02-08T01:36:08.957Z,69.94
2019-02-08T01:38:37.749Z,68.69
2019-02-08T01:41:06.401Z,69.10
2019-02-08T01:43:35.313Z,67.94
2019-02-08T01:46:04.138Z,67.93
2019-02-08T01:48:32.719Z,68.23
2019-02-08T01:51:01.519Z,70.62
2019-02-08T01:53:30.107Z,70.37
2019-02-08T01:55:58.671Z,70.26
2019-02-08T01:58:27.321Z,69.15
2019-02-08T02:00:55.901Z,68.19
2019-02-08T02:03:24.604Z,69.43
2019-02-08T02:05:53.463Z,67.45
2019-02-08T02:08:22.269Z,70.00
2019-02-08T02:10:50.900Z,69.91
2019-02-08T02:13:19.550Z,69.59
2019-02-08T02:15:48.184Z,68.18
2019-02-08T02:18:17.115Z,68.12
2019-02-08T02:20:45.701Z,67.93
2019-02-08T02:23:15.766Z,69.82
2019-02-08T02:25:44.994Z,70.18
2019-02-08T02:28:13.742Z,69.72
2019-02-08T02:30:42.366Z,69.78
2019-02-08T02:33:11.720Z,68.57
2019-02-08T02:35:40.452Z,70.35
2019-02-08T02:38:09.383Z,68.08
2019-02-08T02:40:38.184Z,70.05
2019-02-08T02:43:07.362Z,68.61
2019-02-08T02:45:37.308Z,67.31
2019-02-08T02:48:07.773Z,66.42
2019-02-08T02:50:36.545Z,69.13
2019-02-08T02:53:05.353Z,70.05
2019-02-08T02:55:33.947Z,68.85
2019-02-08T02:58:02.595Z,69.97
2019-02-08T03:00:37.263Z,69.22
2019-02-08T03:03:06.102Z,68.58
2019-02-08T03:05:35.059Z,69.72
2019-02-08T03:08:04.137Z,68.71
2019-02-08T03:10:32.993Z,69.03
2019-02-08T03:13:01.625Z,67.94
2019-02-08T03:15:30.206Z,68.74
2019-02-08T03:17:59.003Z,71.18
2019-02-08T03:20:27.609Z,70.07
2019-02-08T03:22:56.489Z,69.57
2019-02-08T03:25:25.471Z,67.77
2019-02-08T03:27:54.402Z,68.17
2019-02-08T03:30:29.600Z,68.21
2019-02-08T03:32:58.246Z,68.37
2019-02-08T03:35:28.631Z,68.84
2019-02-08T03:37:57.426Z,65.92
2019-02-08T03:40:26.927Z,66.91
2019-02-08T03:42:55.994Z,67.41
2019-02-08T03:45:26.434Z,66.26
2019-02-08T03:47:55.246Z,68.08
2019-02-08T03:50:24.182Z,70.32
2019-02-08T03:52:52.887Z,69.81
2019-02-08T03:55:21.987Z,67.52
2019-02-08T03:57:50.904Z,70.10
2019-02-08T04:00:25.931Z,70.37
2019-02-08T04:02:54.644Z,68.62
2019-02-08T04:05:23.382Z,70.57
2019-02-08T04:07:52.014Z,67.46
2019-02-08T04:10:20.722Z,69.58
2019-02-08T04:12:49.356Z,69.88
2019-02-08T04:15:18.262Z,67.34
2019-02-08T04:17:46.903Z,68.18
2019-02-08T04:20:16.790Z,70.48
2019-02-08T04:22:45.590Z,69.93
2019-02-08T04:25:14.900Z,70.49
2019-02-08T04:27:43.471Z,71.78
2019-02-08T04:30:15.742Z,70.80
2019-02-08T04:32:44.316Z,69.22
2019-02-08T04:35:12.965Z,69.51
2019-02-08T04:37:41.629Z,68.25
2019-02-08T04:40:10.845Z,67.28
2019-02-08T04:42:39.480Z,67.77
2019-02-08T04:45:08.553Z,66.99
2019-02-08T04:47:37.196Z,69.26
2019-02-08T04:50:06.619Z,67.75
2019-02-08T04:52:35.191Z,66.65
2019-02-08T04:55:04.389Z,68.66
2019-02-08T04:57:32.949Z,68.62
2019-02-08T05:00:01.518Z,69.41
2019-02-08T05:02:30.241Z,70.45
2019-02-08T05:04:58.818Z,70.31
2019-02-08T05:07:27.412Z,70.76
2019-02-08T05:09:55.977Z,69.66
2019-02-08T05:12:24.603Z,67.47
2019-02-08T05:14:53.185Z,71.46
2019-02-08T05:17:21.731Z,70.65
2019-02-08T05:19:50.392Z,72.62
2019-02-08T05:22:18.959Z,69.86
2019-02-08T05:24:47.519Z,70.26
2019-02-08T05:27:16.331Z,69.84
2019-02-08T05:29:44.962Z,70.59
2019-02-08T05:32:13.539Z,70.49
2019-02-08T05:34:42.093Z,71.31
2019-02-08T05:37:10.915Z,72.70
2019-02-08T05:39:39.764Z,70.12
2019-02-08T05:42:08.649Z,69.37
2019-02-08T05:44:37.238Z,67.23
2019-02-08T05:47:06.035Z,68.17
2019-02-08T05:49:34.601Z,69.13
2019-02-08T05:52:03.186Z,67.56
2019-02-08T05:54:31.744Z,69.55
2019-02-08T05:57:00.330Z,69.96
2019-02-08T05:59:28.964Z,69.74
2019-02-08T06:01:57.547Z,71.27
2019-02-08T06:04:26.275Z,69.36
2019-02-08T06:06:54.908Z,69.60
2019-02-08T06:09:23.461Z,69.77
2019-02-08T06:11:52.383Z,70.07
2019-02-08T06:14:20.954Z,71.98
2019-02-08T06:16:49.614Z,72.25
2019-02-08T06:19:18.200Z,71.08
2019-02-08T06:21:46.766Z,71.82
2019-02-08T06:24:15.334Z,69.97
2019-02-08T06:26:43.902Z,69.91
2019-02-08T06:29:12.465Z,72.03
2019-02-08T06:31:41.218Z,67.84
2019-02-08T06:34:09.774Z,70.32
2019-02-08T06:36:38.553Z,68.33
2019-02-08T06:39:09.348Z,70.42
2019-02-08T06:41:37.996Z,70.75
2019-02-08T06:44:06.672Z,68.61
2019-02-08T06:46:35.509Z,71.43
2019-02-08T06:49:04.172Z,70.38
2019-02-08T06:51:32.741Z,69.37
2019-02-08T06:54:01.351Z,68.68
2019-02-08T06:56:55.872Z,70.51
2019-02-08T06:59:28.303Z,69.36
2019-02-08T07:02:15.916Z,68.14
2019-02-08T07:04:51.396Z,70.95
2019-02-08T07:07:34.449Z,67.47
2019-02-08T07:10:12.965Z,68.95
2019-02-08T07:12:59.365Z,68.70
2019-02-08T07:15:56.075Z,69.22
2019-02-08T07:18:58.585Z,67.54
2019-02-08T07:21:36.627Z,66.64
2019-02-08T07:24:27.882Z,68.82
2019-02-08T07:27:20.281Z,68.71
2019-02-08T07:30:10.801Z,70.15
2019-02-08T07:32:45.996Z,69.02
2019-02-08T07:35:39.771Z,70.81
2019-02-08T07:38:26.412Z,70.74
2019-02-08T07:41:24.226Z,68.60
2019-02-08T07:44:18.184Z,68.01
2019-02-08T07:46:55.472Z,68.06
2019-02-08T07:49:55.815Z,69.72
2019-02-08T07:52:46.403Z,67.91
2019-02-08T07:55:35.990Z,69.16
2019-02-08T07:58:13.636Z,68.40
2019-02-08T08:01:01.324Z,68.49
2019-02-08T08:03:47.555Z,70.85
2019-02-08T08:06:33.853Z,66.44
2019-02-08T08:09:18.835Z,66.64
2019-02-08T08:12:25.293Z,69.80
2019-02-08T08:15:09.320Z,68.59
2019-02-08T08:17:57.128Z,67.28
2019-02-08T08:20:43.653Z,67.11
2019-02-08T08:23:21.740Z,69.19
2019-02-08T08:26:27.943Z,65.89
2019-02-08T08:29:27.523Z,69.19
2019-02-08T08:32:03.710Z,67.84
2019-02-08T08:35:12.537Z,67.51
2019-02-08T08:38:17.987Z,68.92
2019-02-08T08:41:36.337Z,69.15
2019-02-08T08:44:21.253Z,67.82
2019-02-08T08:47:11.601Z,68.00
2019-02-08T08:50:08.696Z,67.13
2019-02-08T08:53:11.936Z,68.12
2019-02-08T08:56:00.305Z,67.43
2019-02-08T08:59:19.492Z,69.55
2019-02-08T09:02:37.274Z,66.91
2019-02-08T09:05:31.410Z,67.70
2019-02-08T09:08:33.565Z,66.66
2019-02-08T09:11:55.709Z,68.16
2019-02-08T09:15:11.578Z,67.47
2019-02-08T09:18:20.781Z,69.80
2019-02-08T09:21:30.939Z,69.35
2019-02-08T09:24:35.466Z,66.65
2019-02-08T09:27:37.121Z,65.43
2019-02-08T09:30:44.367Z,66.63
2019-02-08T09:33:33.349Z,66.96
2019-02-08T09:36:48.296Z,67.29
2019-02-08T09:39:38.007Z,67.81
2019-02-08T09:42:30.122Z,68.64
2019-02-08T09:45:37.254Z,65.86
2019-02-08T09:48:59.252Z,64.83
2019-02-08T09:51:52.520Z,63.78
2019-02-08T09:54:57.514Z,63.29
2019-02-08T09:58:21.406Z,63.62
2019-02-08T10:01:25.798Z,64.67
2019-02-08T10:04:30.434Z,64.29
2019-02-08T10:07:36.220Z,67.66
2019-02-08T10:11:02.283Z,65.36
2019-02-08T10:14:24.564Z,68.02
2019-02-08T10:17:42.568Z,64.10
2019-02-08T10:20:38.568Z,65.52
2019-02-08T10:23:50.044Z,63.66
2019-02-08T10:26:51.570Z,64.50
2019-02-08T10:30:09.174Z,63.85
2019-02-08T10:33:08.873Z,64.50
2019-02-08T10:36:11.984Z,64.23
2019-02-08T10:39:26.900Z,62.28
2019-02-08T10:42:48.970Z,63.78
2019-02-08T10:46:01.125Z,65.16
2019-02-08T10:49:10.051Z,64.26
2019-02-08T10:52:18.721Z,64.47
2019-02-08T10:55:23.313Z,65.66
2019-02-08T10:58:27.835Z,65.03
2019-02-08T11:01:33.209Z,63.25
2019-02-08T11:05:01.231Z,64.99
2019-02-08T11:08:13.997Z,64.72
2019-02-08T11:11:44.773Z,63.00
2019-02-08T11:14:46.700Z,64.27
2019-02-08T11:18:03.151Z,65.27
2019-02-08T11:20:31.831Z,62.92
2019-02-08T11:23:00.405Z,65.82
2019-02-08T11:25:29.219Z,64.70
2019-02-08T11:27:57.801Z,63.38
2019-02-08T11:30:26.470Z,67.95
2019-02-08T11:32:55.223Z,67.58
2019-02-08T11:35:23.818Z,65.77
2019-02-08T11:37:52.448Z,67.51
2019-02-08T11:40:24.946Z,68.89
2019-02-08T11:42:53.548Z,68.41
2019-02-08T11:45:22.296Z,65.30
2019-02-08T11:47:51.006Z,66.97
2019-02-08T11:50:20.508Z,68.51
2019-02-08T11:52:49.080Z,67.06
2019-02-08T11:55:18.033Z,68.84
2019-02-08T11:57:46.558Z,69.53
2019-02-08T12:00:18.871Z,66.18
2019-02-08T12:02:47.460Z,68.15
2019-02-08T12:05:16.176Z,69.03
2019-02-08T12:07:44.771Z,67.69
2019-02-08T12:10:13.485Z,67.23
2019-02-08T12:12:42.571Z,66.06
2019-02-08T12:15:12.624Z,68.79
2019-02-08T12:17:41.219Z,68.12
2019-02-08T12:20:10.522Z,70.81
2019-02-08T12:22:39.109Z,69.79
2019-02-08T12:25:07.941Z,70.34
2019-02-08T12:27:36.786Z,68.50
2019-02-08T12:30:09.153Z,68.51
2019-02-08T12:32:37.751Z,66.42
2019-02-08T12:35:07.431Z,66.81
2019-02-08T12:37:36.143Z,68.27
2019-02-08T12:40:06.184Z,68.67
2019-02-08T12:42:34.779Z,66.60
2019-02-08T12:45:03.844Z,67.83
2019-02-08T12:47:32.528Z,70.71
2019-02-08T12:50:01.101Z,69.12
2019-02-08T12:52:29.653Z,68.15
2019-02-08T12:54:58.261Z,66.42
2019-02-08T12:57:26.843Z,68.60
2019-02-08T12:59:55.399Z,66.04
2019-02-08T13:02:24.015Z,68.76
2019-02-08T13:04:52.590Z,69.19
2019-02-08T13:07:21.166Z,68.27
2019-02-08T13:09:49.747Z,70.78
2019-02-08T13:12:18.344Z,69.72
2019-02-08T13:14:46.913Z,69.53
2019-02-08T13:17:15.467Z,68.15
2019-02-08T13:19:44.136Z,65.34
2019-02-08T13:22:12.707Z,67.09
2019-02-08T13:24:41.295Z,67.95
2019-02-08T13:27:09.942Z,68.11
2019-02-08T13:29:38.609Z,67.90
2019-02-08T13:32:07.168Z,68.52
2019-02-08T13:34:35.766Z,67.02
2019-02-08T13:37:04.438Z,68.18
2019-02-08T13:39:34.577Z,66.72
2019-02-08T13:42:03.064Z,67.52
2019-02-08T13:44:32.121Z,66.27
2019-02-08T13:47:00.725Z,65.73
2019-02-08T13:49:29.287Z,66.64
2019-02-08T13:51:57.891Z,64.91
2019-02-08T13:54:26.445Z,68.29
2019-02-08T13:57:00.568Z,67.47
2019-02-08T13:59:25.325Z,65.94
2019-02-08T14:01:54.700Z,67.77
2019-02-08T14:04:23.516Z,66.75
2019-02-08T14:06:52.146Z,67.78
2019-02-08T14:09:21.295Z,67.75
2019-02-08T14:11:50.114Z,65.72
2019-02-08T14:14:18.918Z,66.82
2019-02-08T14:16:47.759Z,67.71
2019-02-08T14:19:16.533Z,67.73
2019-02-08T14:21:45.359Z,68.74
2019-02-08T14:24:13.933Z,66.31
2019-02-08T14:26:42.721Z,67.77
2019-02-08T14:29:11.288Z,66.40
2019-02-08T14:31:39.853Z,67.92
2019-02-08T14:34:08.511Z,67.18
2019-02-08T14:36:37.130Z,67.11
2019-02-08T14:39:09.347Z,67.33
2019-02-08T14:41:37.930Z,68.43
2019-02-08T14:44:06.655Z,68.37
2019-02-08T14:46:35.229Z,65.38
2019-02-08T14:49:03.880Z,67.92
2019-02-08T14:51:32.497Z,66.49
2019-02-08T14:54:01.075Z,65.93
2019-02-08T14:56:30.810Z,64.70
2019-02-08T14:58:59.415Z,66.83
2019-02-08T15:01:27.999Z,63.97
2019-02-08T15:03:56.633Z,66.10
2019-02-08T15:06:25.191Z,65.20
2019-02-08T15:08:53.750Z,63.71
2019-02-08T15:11:22.318Z,65.74
2019-02-08T15:13:51.125Z,65.20
2019-02-08T15:16:19.700Z,66.99
2019-02-08T15:18:48.289Z,66.44
2019-02-08T15:21:16.841Z,65.41
2019-02-08T15:23:45.440Z,68.02
2019-02-08T15:26:14.240Z,65.90
2019-02-08T15:28:42.807Z,67.76
2019-02-08T15:31:11.438Z,66.35
2019-02-08T15:33:40.024Z,69.13
2019-02-08T15:36:08.596Z,68.91
2019-02-08T15:38:37.178Z,69.36
2019-02-08T15:41:05.817Z,67.18
2019-02-08T15:43:34.446Z,69.85
2019-02-08T15:46:04.979Z,66.79
2019-02-08T15:48:33.702Z,65.89
2019-02-08T15:51:02.377Z,67.85
2019-02-08T15:53:30.979Z,66.90
2019-02-08T15:56:11.558Z,65.90
2019-02-08T15:58:40.335Z,68.40
2019-02-08T16:01:10.469Z,67.82
2019-02-08T16:03:39.102Z,69.63
2019-02-08T16:06:08.118Z,67.91
2019-02-08T16:08:36.824Z,68.21
2019-02-08T16:11:05.795Z,68.33
2019-02-08T16:13:34.355Z,68.94
2019-02-08T16:16:03.017Z,68.20
2019-02-08T16:18:31.819Z,67.63
2019-02-08T16:21:00.421Z,67.85
2019-02-08T16:23:29.049Z,66.99
2019-02-08T16:25:57.616Z,67.68
2019-02-08T16:28:26.243Z,69.94
2019-02-08T16:30:54.802Z,66.69
2019-02-08T16:33:23.371Z,66.00
2019-02-08T16:35:51.999Z,67.33
2019-02-08T16:38:20.792Z,66.03
2019-02-08T16:40:49.464Z,67.69
2019-02-08T16:43:18.019Z,66.85
2019-02-08T16:45:46.604Z,68.08
2019-02-08T16:48:15.281Z,69.07
2019-02-08T16:50:44.269Z,66.71
2019-02-08T16:53:13.265Z,67.92
2019-02-08T16:55:41.847Z,67.83
2019-02-08T16:58:10.778Z,65.97
2019-02-08T17:00:39.445Z,65.98
2019-02-08T17:03:09.997Z,67.56
2019-02-08T17:05:38.699Z,66.19
2019-02-08T17:08:07.391Z,64.93
2019-02-08T17:10:36.122Z,66.35
2019-02-08T17:13:05.029Z,66.23
2019-02-08T17:15:34.623Z,65.78
2019-02-08T17:18:03.277Z,64.49
2019-02-08T17:20:36.907Z,64.14
2019-02-08T17:23:05.539Z,65.45
2019-02-08T17:25:34.277Z,65.44
2019-02-08T17:28:02.944Z,64.18
2019-02-08T17:30:31.609Z,65.58
2019-02-08T17:33:00.169Z,63.75
2019-02-08T17:35:29.081Z,64.68
2019-02-08T17:37:58.078Z,66.50
2019-02-08T17:40:28.444Z,67.20
2019-02-08T17:42:57.022Z,62.33
2019-02-08T17:45:25.763Z,65.76
2019-02-08T17:47:54.785Z,64.76
2019-02-08T17:50:24.704Z,64.69
2019-02-08T17:52:53.529Z,64.56
2019-02-08T17:55:23.170Z,67.58
2019-02-08T17:57:51.731Z,66.32
2019-02-08T18:00:45.868Z,64.35
2019-02-08T18:03:14.445Z,65.82
2019-02-08T18:05:43.097Z,65.45
2019-02-08T18:08:11.783Z,65.50
2019-02-08T18:10:41.361Z,63.18
2019-02-08T18:13:10.093Z,66.78
2019-02-08T18:15:38.664Z,67.12
2019-02-08T18:18:09.002Z,64.68
2019-02-08T18:20:40.017Z,68.77
2019-02-08T18:23:08.705Z,64.96
2019-02-08T18:25:37.353Z,65.72
2019-02-08T18:28:10.771Z,65.77
2019-02-08T18:30:36.639Z,66.78
2019-02-08T18:33:05.278Z,66.08
2019-02-08T18:35:33.862Z,65.38
2019-02-08T18:38:02.508Z,65.88
2019-02-08T18:40:31.150Z,64.96
2019-02-08T18:42:59.729Z,66.73
2019-02-08T18:45:28.500Z,64.70
2019-02-08T18:47:57.109Z,64.59
2019-02-08T18:50:27.843Z,64.97
2019-02-08T18:52:56.470Z,67.76
2019-02-08T18:55:25.359Z,66.67
2019-02-08T18:57:53.952Z,66.72
2019-02-08T19:00:24.865Z,67.44
2019-02-08T19:02:53.558Z,65.38
2019-02-08T19:05:22.352Z,67.87
2019-02-08T19:07:51.348Z,68.31
2019-02-08T19:10:20.133Z,66.05
2019-02-08T19:12:49.022Z,67.42
2019-02-08T19:15:18.785Z,65.32
2019-02-08T19:17:47.432Z,67.19
2019-02-08T19:20:17.771Z,69.30
2019-02-08T19:22:46.492Z,66.11
2019-02-08T19:25:23.561Z,66.11
2019-02-08T19:27:52.127Z,66.75
2019-02-08T19:30:25.614Z,68.53
2019-02-08T19:32:54.249Z,68.03
2019-02-08T19:35:22.935Z,66.60
2019-02-08T19:37:51.514Z,69.06
2019-02-08T19:40:28.564Z,64.63
2019-02-08T19:42:57.160Z,67.14
2019-02-08T19:45:25.890Z,67.62
2019-02-08T19:47:54.567Z,66.84
2019-02-08T19:50:25.425Z,67.97
2019-02-08T19:52:54.032Z,66.13
2019-02-08T19:55:22.626Z,65.89
2019-02-08T19:57:51.304Z,66.91
2019-02-08T20:00:21.894Z,69.23
2019-02-08T20:02:50.550Z,67.77
2019-02-08T20:05:20.849Z,67.02
2019-02-08T20:07:49.504Z,68.77
2019-02-08T20:10:20.487Z,68.02
2019-02-08T20:12:49.140Z,66.48
2019-02-08T20:15:18.288Z,67.88
2019-02-08T20:17:47.057Z,67.05
2019-02-08T20:20:15.658Z,64.55
2019-02-08T20:22:44.590Z,69.07
2019-02-08T20:25:33.953Z,67.46
2019-02-08T20:28:02.559Z,67.30
2019-02-08T20:30:31.610Z,66.48
2019-02-08T20:33:00.253Z,66.34
2019-02-08T20:35:29.110Z,67.83
2019-02-08T20:37:57.832Z,68.31
2019-02-08T20:40:37.518Z,69.02
2019-02-08T20:43:06.111Z,67.55
2019-02-08T20:45:34.838Z,65.87
2019-02-08T20:48:06.524Z,67.34
2019-02-08T20:50:35.177Z,66.49
2019-02-08T20:53:04.437Z,69.33
2019-02-08T20:55:33.262Z,68.27
2019-02-08T20:58:02.027Z,66.83
2019-02-08T21:00:36.117Z,68.79
2019-02-08T21:03:10.218Z,67.56
2019-02-08T21:05:39.019Z,65.53
2019-02-08T21:08:08.202Z,67.18
2019-02-08T21:10:37.194Z,66.70
2019-02-08T21:13:07.194Z,68.59
2019-02-08T21:15:35.931Z,67.58
2019-02-08T21:18:04.921Z,68.66
2019-02-08T21:20:33.511Z,69.20
2019-02-08T21:23:02.173Z,69.32
2019-02-08T21:25:31.198Z,67.33
2019-02-08T21:27:59.783Z,66.76
2019-02-08T21:30:28.440Z,66.24
2019-02-08T21:32:57.210Z,66.28
2019-02-08T21:35:25.860Z,67.04
2019-02-08T21:37:54.704Z,65.42
2019-02-08T21:40:24.722Z,64.47
2019-02-08T21:42:53.666Z,66.19
2019-02-08T21:45:30.165Z,66.21
2019-02-08T21:47:58.715Z,64.35
2019-02-08T21:50:27.436Z,66.74
2019-02-08T21:52:56.147Z,67.55
2019-02-08T21:55:25.140Z,65.87
2019-02-08T21:57:53.778Z,67.19
2019-02-08T22:00:27.190Z,66.31
2019-02-08T22:02:56.270Z,65.67
2019-02-08T22:05:48.560Z,65.85
2019-02-08T22:08:17.213Z,65.13
2019-02-08T22:10:45.759Z,64.51
2019-02-08T22:13:14.656Z,66.71
2019-02-08T22:15:43.315Z,65.11
2019-02-08T22:18:12.062Z,67.03
2019-02-08T22:20:40.712Z,64.42
2019-02-08T22:23:09.427Z,66.80
2019-02-08T22:25:38.009Z,65.34
2019-02-08T22:28:07.429Z,62.75
2019-02-08T22:30:36.125Z,65.48
2019-02-08T22:33:05.647Z,65.45
2019-02-08T22:35:34.535Z,65.77
2019-02-08T22:38:03.092Z,67.09
2019-02-08T22:40:31.670Z,66.28
2019-02-08T22:43:00.228Z,66.45
2019-02-08T22:45:33.382Z,67.58
2019-02-08T22:48:03.021Z,66.91
2019-02-08T22:50:31.706Z,67.58
2019-02-08T22:53:00.313Z,67.83
2019-02-08T22:55:30.359Z,68.13
2019-02-08T22:57:58.998Z,69.13
2019-02-08T23:01:27.831Z,67.06
2019-02-08T23:03:57.847Z,67.20
2019-02-08T23:06:26.577Z,64.11
2019-02-08T23:08:55.213Z,66.64
2019-02-08T23:11:24.160Z,65.87
2019-02-08T23:13:52.884Z,65.75
2019-02-08T23:16:21.521Z,67.87
2019-02-08T23:18:50.084Z,66.82
2019-02-08T23:21:18.701Z,65.74
2019-02-08T23:23:47.261Z,65.99
2019-02-08T23:26:15.891Z,65.69
2019-02-08T23:28:44.454Z,66.34
2019-02-08T23:31:13.355Z,66.47
2019-02-08T23:33:41.917Z,65.24
2019-02-08T23:36:10.724Z,65.04
2019-02-08T23:38:39.275Z,65.04
2019-02-08T23:41:08.152Z,64.15
2019-02-08T23:43:36.767Z,64.60
2019-02-08T23:46:05.397Z,65.58
2019-02-08T23:48:33.956Z,65.21
2019-02-08T23:51:02.537Z,66.54
2019-02-08T23:53:31.199Z,61.90
2019-02-08T23:55:59.836Z,65.26
2019-02-08T23:58:28.392Z,63.88
